sensor_id;sensor_type;location;lat;lon;timestamp;temperature;humidity
46416;DHT22;32620;51.704;7.822;2022-10-26T00:00:40;9.00;99.90
46416;DHT22;32620;51.704;7.822;2022-10-26T00:03:05;8.90;99.90
46416;DHT22;32620;51.704;7.822;2022-10-26T00:05:31;8.90;99.90
46416;DHT22;32620;51.704;7.822;2022-10-26T00:07:57;8.90;99.90
46416;DHT22;32620;51.704;7.822;2022-10-26T00:10:22;8.90;99.90
46416;DHT22;32620;51.704;7.822;2022-10-26T00:12:49;8.80;99.90
46416;DHT22;32620;51.704;7.822;2022-10-26T00:15:15;8.90;99.90
46416;DHT22;32620;51.704;7.822;2022-10-26T00:17:41;9.00;99.90
46416;DHT22;32620;51.704;7.822;2022-10-26T00:20:06;9.00;99.90
46416;DHT22;32620;51.704;7.822;2022-10-26T00:22:32;9.00;99.90
46416;DHT22;32620;51.704;7.822;2022-10-26T00:24:57;9.00;99.90
46416;DHT22;32620;51.704;7.822;2022-10-26T00:27:23;9.00;99.90
46416;DHT22;32620;51.704;7.822;2022-10-26T00:29:48;8.90;99.90
46416;DHT22;32620;51.704;7.822;2022-10-26T00:32:14;8.90;99.90
46416;DHT22;32620;51.704;7.822;2022-10-26T00:34:39;8.90;99.90
46416;DHT22;32620;51.704;7.822;2022-10-26T00:37:05;9.00;99.90
46416;DHT22;32620;51.704;7.822;2022-10-26T00:39:30;9.00;99.90
46416;DHT22;32620;51.704;7.822;2022-10-26T00:41:56;9.00;99.90
46416;DHT22;32620;51.704;7.822;2022-10-26T00:47:08;9.00;99.90
46416;DHT22;32620;51.704;7.822;2022-10-26T00:49:34;9.10;99.90
46416;DHT22;32620;51.704;7.822;2022-10-26T00:52:00;9.20;99.90
46416;DHT22;32620;51.704;7.822;2022-10-26T00:54:25;9.20;99.90
46416;DHT22;32620;51.704;7.822;2022-10-26T00:56:51;9.20;99.90
46416;DHT22;32620;51.704;7.822;2022-10-26T00:59:18;9.20;99.90
46416;DHT22;32620;51.704;7.822;2022-10-26T01:01:45;9.30;99.90
46416;DHT22;32620;51.704;7.822;2022-10-26T01:04:12;9.30;99.90
46416;DHT22;32620;51.704;7.822;2022-10-26T01:06:38;9.30;99.90
46416;DHT22;32620;51.704;7.822;2022-10-26T01:09:04;9.30;99.90
46416;DHT22;32620;51.704;7.822;2022-10-26T01:11:30;9.30;99.90
46416;DHT22;32620;51.704;7.822;2022-10-26T01:13:55;9.30;99.90
46416;DHT22;32620;51.704;7.822;2022-10-26T01:16:59;9.30;99.90
46416;DHT22;32620;51.704;7.822;2022-10-26T01:19:36;9.30;99.90
46416;DHT22;32620;51.704;7.822;2022-10-26T01:22:08;9.30;99.90
46416;DHT22;32620;51.704;7.822;2022-10-26T01:27:53;9.30;99.90
46416;DHT22;32620;51.704;7.822;2022-10-26T01:30:43;9.30;99.90
46416;DHT22;32620;51.704;7.822;2022-10-26T01:32:59;9.30;99.90
46416;DHT22;32620;51.704;7.822;2022-10-26T01:35:29;9.30;99.90
46416;DHT22;32620;51.704;7.822;2022-10-26T01:38:03;9.30;99.90
46416;DHT22;32620;51.704;7.822;2022-10-26T01:40:31;9.30;99.90
46416;DHT22;32620;51.704;7.822;2022-10-26T01:42:59;9.30;99.90
46416;DHT22;32620;51.704;7.822;2022-10-26T01:45:26;9.30;99.90
46416;DHT22;32620;51.704;7.822;2022-10-26T01:47:52;9.30;99.90
46416;DHT22;32620;51.704;7.822;2022-10-26T01:50:19;9.30;99.90
46416;DHT22;32620;51.704;7.822;2022-10-26T01:52:48;9.40;99.90
46416;DHT22;32620;51.704;7.822;2022-10-26T01:58:00;9.40;99.90
46416;DHT22;32620;51.704;7.822;2022-10-26T02:00:27;9.40;99.90
46416;DHT22;32620;51.704;7.822;2022-10-26T02:05:54;9.40;99.90
46416;DHT22;32620;51.704;7.822;2022-10-26T02:13:46;9.40;99.90
46416;DHT22;32620;51.704;7.822;2022-10-26T02:16:47;9.40;99.90
46416;DHT22;32620;51.704;7.822;2022-10-26T02:19:00;9.40;99.90
46416;DHT22;32620;51.704;7.822;2022-10-26T02:21:30;9.40;99.90
46416;DHT22;32620;51.704;7.822;2022-10-26T02:23:58;9.50;99.90
46416;DHT22;32620;51.704;7.822;2022-10-26T02:26:24;9.50;99.90
46416;DHT22;32620;51.704;7.822;2022-10-26T02:28:52;9.40;99.90
46416;DHT22;32620;51.704;7.822;2022-10-26T02:31:18;9.50;99.90
46416;DHT22;32620;51.704;7.822;2022-10-26T02:33:46;9.50;99.90
46416;DHT22;32620;51.704;7.822;2022-10-26T02:36:13;9.50;99.90
46416;DHT22;32620;51.704;7.822;2022-10-26T02:38:40;9.50;99.90
46416;DHT22;32620;51.704;7.822;2022-10-26T02:41:06;9.50;99.90
46416;DHT22;32620;51.704;7.822;2022-10-26T02:43:34;9.50;99.90
46416;DHT22;32620;51.704;7.822;2022-10-26T02:46:04;9.50;99.90
46416;DHT22;32620;51.704;7.822;2022-10-26T02:48:30;9.50;99.90
46416;DHT22;32620;51.704;7.822;2022-10-26T02:50:59;9.60;99.90
46416;DHT22;32620;51.704;7.822;2022-10-26T02:53:34;9.60;99.90
46416;DHT22;32620;51.704;7.822;2022-10-26T02:56:02;9.60;99.90
46416;DHT22;32620;51.704;7.822;2022-10-26T02:58:28;9.70;99.90
46416;DHT22;32620;51.704;7.822;2022-10-26T03:00:55;9.70;99.90
46416;DHT22;32620;51.704;7.822;2022-10-26T03:03:21;9.70;99.90
46416;DHT22;32620;51.704;7.822;2022-10-26T03:05:46;9.80;99.90
46416;DHT22;32620;51.704;7.822;2022-10-26T03:08:12;9.80;99.90
46416;DHT22;32620;51.704;7.822;2022-10-26T03:10:39;9.80;99.90
46416;DHT22;32620;51.704;7.822;2022-10-26T03:13:05;9.80;99.90
46416;DHT22;32620;51.704;7.822;2022-10-26T03:15:31;9.90;99.90
46416;DHT22;32620;51.704;7.822;2022-10-26T03:17:56;9.90;99.90
46416;DHT22;32620;51.704;7.822;2022-10-26T03:20:21;9.90;99.90
46416;DHT22;32620;51.704;7.822;2022-10-26T03:22:47;9.90;99.90
46416;DHT22;32620;51.704;7.822;2022-10-26T03:25:13;9.90;99.90
46416;DHT22;32620;51.704;7.822;2022-10-26T03:27:40;10.00;99.90
46416;DHT22;32620;51.704;7.822;2022-10-26T03:30:05;10.00;99.90
46416;DHT22;32620;51.704;7.822;2022-10-26T03:32:31;10.00;99.90
46416;DHT22;32620;51.704;7.822;2022-10-26T03:34:57;10.00;99.90
46416;DHT22;32620;51.704;7.822;2022-10-26T03:37:22;10.00;99.90
46416;DHT22;32620;51.704;7.822;2022-10-26T03:39:47;10.00;99.90
46416;DHT22;32620;51.704;7.822;2022-10-26T03:42:13;10.00;99.90
46416;DHT22;32620;51.704;7.822;2022-10-26T03:44:38;10.00;99.90
46416;DHT22;32620;51.704;7.822;2022-10-26T03:47:04;10.00;99.90
46416;DHT22;32620;51.704;7.822;2022-10-26T03:49:29;10.00;99.90
46416;DHT22;32620;51.704;7.822;2022-10-26T03:51:55;10.00;99.90
46416;DHT22;32620;51.704;7.822;2022-10-26T03:54:20;10.00;99.90
46416;DHT22;32620;51.704;7.822;2022-10-26T03:56:46;10.00;99.90
46416;DHT22;32620;51.704;7.822;2022-10-26T03:59:11;10.00;99.90
46416;DHT22;32620;51.704;7.822;2022-10-26T04:01:37;10.00;99.90
46416;DHT22;32620;51.704;7.822;2022-10-26T04:04:03;10.10;99.90
46416;DHT22;32620;51.704;7.822;2022-10-26T04:06:28;10.00;99.90
46416;DHT22;32620;51.704;7.822;2022-10-26T04:08:53;10.10;99.90
46416;DHT22;32620;51.704;7.822;2022-10-26T04:11:26;10.10;99.90
46416;DHT22;32620;51.704;7.822;2022-10-26T04:13:51;10.00;99.90
46416;DHT22;32620;51.704;7.822;2022-10-26T04:16:16;10.10;99.90
46416;DHT22;32620;51.704;7.822;2022-10-26T04:18:42;10.10;99.90
46416;DHT22;32620;51.704;7.822;2022-10-26T04:21:07;10.10;99.90
46416;DHT22;32620;51.704;7.822;2022-10-26T04:23:33;10.10;99.90
46416;DHT22;32620;51.704;7.822;2022-10-26T04:25:58;10.10;99.90
46416;DHT22;32620;51.704;7.822;2022-10-26T04:28:24;10.10;99.90
46416;DHT22;32620;51.704;7.822;2022-10-26T04:30:49;10.10;99.90
46416;DHT22;32620;51.704;7.822;2022-10-26T04:33:15;10.20;99.90
46416;DHT22;32620;51.704;7.822;2022-10-26T04:35:40;10.20;99.90
46416;DHT22;32620;51.704;7.822;2022-10-26T04:38:09;10.20;99.90
46416;DHT22;32620;51.704;7.822;2022-10-26T04:40:34;10.20;99.90
46416;DHT22;32620;51.704;7.822;2022-10-26T04:43:00;10.20;99.90
46416;DHT22;32620;51.704;7.822;2022-10-26T04:45:25;10.20;99.90
46416;DHT22;32620;51.704;7.822;2022-10-26T04:48:10;10.20;99.90
46416;DHT22;32620;51.704;7.822;2022-10-26T04:50:36;10.20;99.90
46416;DHT22;32620;51.704;7.822;2022-10-26T04:53:02;10.20;99.90
46416;DHT22;32620;51.704;7.822;2022-10-26T04:55:27;10.20;99.90
46416;DHT22;32620;51.704;7.822;2022-10-26T04:57:53;10.20;99.90
46416;DHT22;32620;51.704;7.822;2022-10-26T05:00:18;10.20;99.90
46416;DHT22;32620;51.704;7.822;2022-10-26T05:02:44;10.20;99.90
46416;DHT22;32620;51.704;7.822;2022-10-26T05:05:10;10.20;99.90
46416;DHT22;32620;51.704;7.822;2022-10-26T05:07:35;10.20;99.90
46416;DHT22;32620;51.704;7.822;2022-10-26T05:10:01;10.20;99.90
46416;DHT22;32620;51.704;7.822;2022-10-26T05:12:26;10.20;99.90
46416;DHT22;32620;51.704;7.822;2022-10-26T05:14:52;10.20;99.90
46416;DHT22;32620;51.704;7.822;2022-10-26T05:17:17;10.20;99.90
46416;DHT22;32620;51.704;7.822;2022-10-26T05:19:43;10.20;99.90
46416;DHT22;32620;51.704;7.822;2022-10-26T05:22:08;10.20;99.90
46416;DHT22;32620;51.704;7.822;2022-10-26T05:24:34;10.30;99.90
46416;DHT22;32620;51.704;7.822;2022-10-26T05:26:59;10.30;99.90
46416;DHT22;32620;51.704;7.822;2022-10-26T05:29:25;10.30;99.90
46416;DHT22;32620;51.704;7.822;2022-10-26T05:31:50;10.30;99.90
46416;DHT22;32620;51.704;7.822;2022-10-26T05:34:16;10.30;99.90
46416;DHT22;32620;51.704;7.822;2022-10-26T05:36:41;10.40;99.90
46416;DHT22;32620;51.704;7.822;2022-10-26T05:39:07;10.40;99.90
46416;DHT22;32620;51.704;7.822;2022-10-26T05:41:32;10.40;99.90
46416;DHT22;32620;51.704;7.822;2022-10-26T05:43:58;10.40;99.90
46416;DHT22;32620;51.704;7.822;2022-10-26T05:46:23;10.40;99.90
46416;DHT22;32620;51.704;7.822;2022-10-26T05:48:48;10.40;99.90
46416;DHT22;32620;51.704;7.822;2022-10-26T05:51:14;10.40;99.90
46416;DHT22;32620;51.704;7.822;2022-10-26T05:53:40;10.50;99.90
46416;DHT22;32620;51.704;7.822;2022-10-26T05:56:38;10.50;99.90
46416;DHT22;32620;51.704;7.822;2022-10-26T05:58:51;10.40;99.90
46416;DHT22;32620;51.704;7.822;2022-10-26T06:01:34;10.40;99.90
46416;DHT22;32620;51.704;7.822;2022-10-26T06:04:06;10.50;99.90
46416;DHT22;32620;51.704;7.822;2022-10-26T06:06:42;10.40;99.90
46416;DHT22;32620;51.704;7.822;2022-10-26T06:09:10;10.50;99.90
46416;DHT22;32620;51.704;7.822;2022-10-26T06:11:36;10.50;99.90
46416;DHT22;32620;51.704;7.822;2022-10-26T06:14:01;10.50;99.90
46416;DHT22;32620;51.704;7.822;2022-10-26T06:16:52;10.60;99.90
46416;DHT22;32620;51.704;7.822;2022-10-26T06:21:49;10.70;99.90
46416;DHT22;32620;51.704;7.822;2022-10-26T06:27:10;10.80;99.90
46416;DHT22;32620;51.704;7.822;2022-10-26T06:29:42;10.80;99.90
46416;DHT22;32620;51.704;7.822;2022-10-26T06:32:09;10.90;99.90
46416;DHT22;32620;51.704;7.822;2022-10-26T06:34:35;10.90;99.90
46416;DHT22;32620;51.704;7.822;2022-10-26T06:37:02;10.90;99.90
46416;DHT22;32620;51.704;7.822;2022-10-26T06:39:28;11.00;99.90
46416;DHT22;32620;51.704;7.822;2022-10-26T06:41:56;11.00;99.90
46416;DHT22;32620;51.704;7.822;2022-10-26T06:44:22;11.00;99.90
46416;DHT22;32620;51.704;7.822;2022-10-26T06:49:37;11.10;99.90
46416;DHT22;32620;51.704;7.822;2022-10-26T06:52:10;11.20;99.90
46416;DHT22;32620;51.704;7.822;2022-10-26T06:54:44;11.20;99.90
46416;DHT22;32620;51.704;7.822;2022-10-26T06:57:11;11.30;99.90
46416;DHT22;32620;51.704;7.822;2022-10-26T06:59:39;11.30;99.90
46416;DHT22;32620;51.704;7.822;2022-10-26T07:02:07;11.30;99.90
46416;DHT22;32620;51.704;7.822;2022-10-26T07:04:33;11.30;99.90
46416;DHT22;32620;51.704;7.822;2022-10-26T07:06:58;11.40;99.90
46416;DHT22;32620;51.704;7.822;2022-10-26T07:09:24;11.40;99.90
46416;DHT22;32620;51.704;7.822;2022-10-26T07:11:49;11.50;99.90
46416;DHT22;32620;51.704;7.822;2022-10-26T07:14:15;11.50;99.90
46416;DHT22;32620;51.704;7.822;2022-10-26T07:16:40;11.50;99.90
46416;DHT22;32620;51.704;7.822;2022-10-26T07:19:06;11.60;99.90
46416;DHT22;32620;51.704;7.822;2022-10-26T07:21:31;11.70;99.90
46416;DHT22;32620;51.704;7.822;2022-10-26T07:23:57;11.80;99.90
46416;DHT22;32620;51.704;7.822;2022-10-26T07:26:22;11.90;99.90
46416;DHT22;32620;51.704;7.822;2022-10-26T07:28:50;12.00;99.90
46416;DHT22;32620;51.704;7.822;2022-10-26T07:31:15;12.00;99.90
46416;DHT22;32620;51.704;7.822;2022-10-26T07:33:41;12.10;99.90
46416;DHT22;32620;51.704;7.822;2022-10-26T07:36:07;12.20;99.90
46416;DHT22;32620;51.704;7.822;2022-10-26T07:38:35;12.30;99.90
46416;DHT22;32620;51.704;7.822;2022-10-26T07:41:01;12.40;99.90
46416;DHT22;32620;51.704;7.822;2022-10-26T07:43:26;12.50;99.90
46416;DHT22;32620;51.704;7.822;2022-10-26T07:45:52;12.60;99.90
46416;DHT22;32620;51.704;7.822;2022-10-26T07:48:17;12.70;99.90
46416;DHT22;32620;51.704;7.822;2022-10-26T07:50:43;12.80;99.90
46416;DHT22;32620;51.704;7.822;2022-10-26T07:53:08;12.90;99.90
46416;DHT22;32620;51.704;7.822;2022-10-26T07:55:34;13.00;99.90
46416;DHT22;32620;51.704;7.822;2022-10-26T07:57:59;13.10;99.90
46416;DHT22;32620;51.704;7.822;2022-10-26T08:00:24;13.20;99.90
46416;DHT22;32620;51.704;7.822;2022-10-26T08:02:50;13.30;99.90
46416;DHT22;32620;51.704;7.822;2022-10-26T08:05:16;13.30;99.90
46416;DHT22;32620;51.704;7.822;2022-10-26T08:07:42;13.40;99.90
46416;DHT22;32620;51.704;7.822;2022-10-26T08:10:08;13.50;99.90
46416;DHT22;32620;51.704;7.822;2022-10-26T08:12:34;13.60;99.90
46416;DHT22;32620;51.704;7.822;2022-10-26T08:14:59;13.70;99.90
46416;DHT22;32620;51.704;7.822;2022-10-26T08:17:25;13.80;99.90
46416;DHT22;32620;51.704;7.822;2022-10-26T08:19:50;13.90;99.90
46416;DHT22;32620;51.704;7.822;2022-10-26T08:22:16;13.90;99.90
46416;DHT22;32620;51.704;7.822;2022-10-26T08:24:41;14.10;99.90
46416;DHT22;32620;51.704;7.822;2022-10-26T08:27:11;14.20;99.90
46416;DHT22;32620;51.704;7.822;2022-10-26T08:29:37;14.40;99.90
46416;DHT22;32620;51.704;7.822;2022-10-26T08:32:02;14.80;99.90
46416;DHT22;32620;51.704;7.822;2022-10-26T08:34:28;15.10;99.90
46416;DHT22;32620;51.704;7.822;2022-10-26T08:36:53;15.50;99.90
46416;DHT22;32620;51.704;7.822;2022-10-26T08:39:19;15.80;99.90
46416;DHT22;32620;51.704;7.822;2022-10-26T08:41:45;16.00;99.90
46416;DHT22;32620;51.704;7.822;2022-10-26T08:44:16;15.90;99.90
46416;DHT22;32620;51.704;7.822;2022-10-26T08:46:45;15.80;99.90
46416;DHT22;32620;51.704;7.822;2022-10-26T08:49:29;15.70;99.90
46416;DHT22;32620;51.704;7.822;2022-10-26T08:51:56;16.00;99.90
46416;DHT22;32620;51.704;7.822;2022-10-26T08:54:27;16.70;99.90
46416;DHT22;32620;51.704;7.822;2022-10-26T08:56:57;17.00;99.90
46416;DHT22;32620;51.704;7.822;2022-10-26T08:59:41;17.10;99.90
46416;DHT22;32620;51.704;7.822;2022-10-26T09:02:10;17.20;99.90
46416;DHT22;32620;51.704;7.822;2022-10-26T09:04:36;18.30;99.90
46416;DHT22;32620;51.704;7.822;2022-10-26T09:07:05;19.30;99.90
46416;DHT22;32620;51.704;7.822;2022-10-26T09:12:27;20.60;99.90
46416;DHT22;32620;51.704;7.822;2022-10-26T09:15:02;21.60;99.90
46416;DHT22;32620;51.704;7.822;2022-10-26T09:17:38;22.50;99.90
46416;DHT22;32620;51.704;7.822;2022-10-26T09:20:12;23.00;99.90
46416;DHT22;32620;51.704;7.822;2022-10-26T09:22:57;23.00;99.90
46416;DHT22;32620;51.704;7.822;2022-10-26T09:25:26;23.60;99.90
46416;DHT22;32620;51.704;7.822;2022-10-26T09:27:56;23.80;99.90
46416;DHT22;32620;51.704;7.822;2022-10-26T09:30:22;23.50;99.90
46416;DHT22;32620;51.704;7.822;2022-10-26T09:32:49;23.40;99.90
46416;DHT22;32620;51.704;7.822;2022-10-26T09:38:08;23.30;99.90
46416;DHT22;32620;51.704;7.822;2022-10-26T09:40:42;24.00;99.90
46416;DHT22;32620;51.704;7.822;2022-10-26T09:43:12;23.40;99.90
46416;DHT22;32620;51.704;7.822;2022-10-26T09:45:40;23.10;99.90
46416;DHT22;32620;51.704;7.822;2022-10-26T09:48:10;23.50;99.90
46416;DHT22;32620;51.704;7.822;2022-10-26T09:50:38;24.00;99.90
46416;DHT22;32620;51.704;7.822;2022-10-26T09:53:04;24.10;99.90
46416;DHT22;32620;51.704;7.822;2022-10-26T09:55:30;23.80;99.90
46416;DHT22;32620;51.704;7.822;2022-10-26T09:57:57;24.30;99.90
46416;DHT22;32620;51.704;7.822;2022-10-26T10:00:27;23.80;99.90
46416;DHT22;32620;51.704;7.822;2022-10-26T10:02:54;24.10;99.90
46416;DHT22;32620;51.704;7.822;2022-10-26T10:05:24;24.00;99.90
46416;DHT22;32620;51.704;7.822;2022-10-26T10:07:49;23.90;99.90
46416;DHT22;32620;51.704;7.822;2022-10-26T10:10:16;23.30;99.90
46416;DHT22;32620;51.704;7.822;2022-10-26T10:12:42;23.30;99.90
46416;DHT22;32620;51.704;7.822;2022-10-26T10:15:15;22.70;99.90
46416;DHT22;32620;51.704;7.822;2022-10-26T10:17:41;22.70;99.90
46416;DHT22;32620;51.704;7.822;2022-10-26T10:20:15;22.50;99.90
46416;DHT22;32620;51.704;7.822;2022-10-26T10:22:58;22.60;99.90
46416;DHT22;32620;51.704;7.822;2022-10-26T10:25:31;22.60;99.90
46416;DHT22;32620;51.704;7.822;2022-10-26T10:27:57;22.60;99.90
46416;DHT22;32620;51.704;7.822;2022-10-26T10:30:27;22.30;99.90
46416;DHT22;32620;51.704;7.822;2022-10-26T10:35:39;22.50;99.90
46416;DHT22;32620;51.704;7.822;2022-10-26T10:38:14;22.40;99.90
46416;DHT22;32620;51.704;7.822;2022-10-26T10:40:41;22.30;99.90
46416;DHT22;32620;51.704;7.822;2022-10-26T10:43:13;22.50;99.90
46416;DHT22;32620;51.704;7.822;2022-10-26T10:45:40;22.30;99.90
46416;DHT22;32620;51.704;7.822;2022-10-26T10:50:56;22.90;99.90
46416;DHT22;32620;51.704;7.822;2022-10-26T10:53:25;22.90;99.90
46416;DHT22;32620;51.704;7.822;2022-10-26T10:58:41;22.70;99.90
46416;DHT22;32620;51.704;7.822;2022-10-26T11:01:11;22.40;99.90
46416;DHT22;32620;51.704;7.822;2022-10-26T11:04:13;22.20;99.90
46416;DHT22;32620;51.704;7.822;2022-10-26T11:06:24;22.10;99.90
46416;DHT22;32620;51.704;7.822;2022-10-26T11:08:58;22.00;99.90
46416;DHT22;32620;51.704;7.822;2022-10-26T11:11:42;21.80;99.90
46416;DHT22;32620;51.704;7.822;2022-10-26T11:14:11;21.70;99.90
46416;DHT22;32620;51.704;7.822;2022-10-26T11:16:41;21.70;99.90
46416;DHT22;32620;51.704;7.822;2022-10-26T11:21:53;21.70;99.90
46416;DHT22;32620;51.704;7.822;2022-10-26T11:27:07;21.30;99.90
46416;DHT22;32620;51.704;7.822;2022-10-26T11:29:37;21.50;99.90
46416;DHT22;32620;51.704;7.822;2022-10-26T11:32:15;21.50;99.90
46416;DHT22;32620;51.704;7.822;2022-10-26T11:34:46;21.10;99.90
46416;DHT22;32620;51.704;7.822;2022-10-26T11:37:18;21.00;99.90
46416;DHT22;32620;51.704;7.822;2022-10-26T11:39:57;21.20;99.90
46416;DHT22;32620;51.704;7.822;2022-10-26T11:42:30;21.10;99.90
46416;DHT22;32620;51.704;7.822;2022-10-26T11:45:02;21.40;99.90
46416;DHT22;32620;51.704;7.822;2022-10-26T11:47:35;20.90;99.90
46416;DHT22;32620;51.704;7.822;2022-10-26T11:50:37;20.90;99.90
46416;DHT22;32620;51.704;7.822;2022-10-26T11:52:55;21.10;99.90
46416;DHT22;32620;51.704;7.822;2022-10-26T11:55:23;21.10;99.90
46416;DHT22;32620;51.704;7.822;2022-10-26T11:57:49;21.20;99.90
46416;DHT22;32620;51.704;7.822;2022-10-26T12:00:15;21.00;99.90
46416;DHT22;32620;51.704;7.822;2022-10-26T12:02:42;20.90;99.90
46416;DHT22;32620;51.704;7.822;2022-10-26T12:07:55;20.80;99.90
46416;DHT22;32620;51.704;7.822;2022-10-26T12:10:25;21.00;99.90
46416;DHT22;32620;51.704;7.822;2022-10-26T12:12:53;20.90;99.90
46416;DHT22;32620;51.704;7.822;2022-10-26T12:15:24;21.00;99.90
46416;DHT22;32620;51.704;7.822;2022-10-26T12:17:54;21.10;99.90
46416;DHT22;32620;51.704;7.822;2022-10-26T12:23:05;21.10;99.90
46416;DHT22;32620;51.704;7.822;2022-10-26T12:25:30;21.10;99.90
46416;DHT22;32620;51.704;7.822;2022-10-26T12:27:56;21.10;99.90
46416;DHT22;32620;51.704;7.822;2022-10-26T12:30:25;21.00;99.90
46416;DHT22;32620;51.704;7.822;2022-10-26T12:32:53;21.00;99.90
46416;DHT22;32620;51.704;7.822;2022-10-26T12:35:50;20.80;99.90
46416;DHT22;32620;51.704;7.822;2022-10-26T12:38:25;20.80;99.90
46416;DHT22;32620;51.704;7.822;2022-10-26T12:43:42;21.00;99.90
46416;DHT22;32620;51.704;7.822;2022-10-26T12:48:50;21.20;99.90
46416;DHT22;32620;51.704;7.822;2022-10-26T12:54:31;20.90;99.90
46416;DHT22;32620;51.704;7.822;2022-10-26T12:56:59;20.80;99.90
46416;DHT22;32620;51.704;7.822;2022-10-26T13:00:03;20.80;99.90
46416;DHT22;32620;51.704;7.822;2022-10-26T13:07:40;21.10;99.90
46416;DHT22;32620;51.704;7.822;2022-10-26T13:12:46;21.00;99.90
46416;DHT22;32620;51.704;7.822;2022-10-26T13:15:28;20.90;99.90
46416;DHT22;32620;51.704;7.822;2022-10-26T13:18:25;20.90;99.90
46416;DHT22;32620;51.704;7.822;2022-10-26T13:21:14;20.80;99.90
46416;DHT22;32620;51.704;7.822;2022-10-26T13:23:28;20.70;99.90
46416;DHT22;32620;51.704;7.822;2022-10-26T13:26:27;20.70;99.90
46416;DHT22;32620;51.704;7.822;2022-10-26T13:28:43;20.70;99.90
46416;DHT22;32620;51.704;7.822;2022-10-26T13:33:56;20.70;99.90
46416;DHT22;32620;51.704;7.822;2022-10-26T13:36:31;20.70;99.90
46416;DHT22;32620;51.704;7.822;2022-10-26T13:38:59;20.60;99.90
46416;DHT22;32620;51.704;7.822;2022-10-26T13:41:33;20.60;99.90
46416;DHT22;32620;51.704;7.822;2022-10-26T13:43:59;20.60;99.90
46416;DHT22;32620;51.704;7.822;2022-10-26T13:46:28;20.60;99.90
46416;DHT22;32620;51.704;7.822;2022-10-26T13:48:57;20.60;99.90
46416;DHT22;32620;51.704;7.822;2022-10-26T13:51:27;20.50;99.90
46416;DHT22;32620;51.704;7.822;2022-10-26T13:54:03;20.50;99.90
46416;DHT22;32620;51.704;7.822;2022-10-26T13:56:32;20.40;99.90
46416;DHT22;32620;51.704;7.822;2022-10-26T13:59:01;20.20;99.90
46416;DHT22;32620;51.704;7.822;2022-10-26T14:01:27;20.20;99.90
46416;DHT22;32620;51.704;7.822;2022-10-26T14:03:54;20.20;99.90
46416;DHT22;32620;51.704;7.822;2022-10-26T14:06:23;20.20;99.90
46416;DHT22;32620;51.704;7.822;2022-10-26T14:08:50;20.20;99.90
46416;DHT22;32620;51.704;7.822;2022-10-26T14:11:18;20.20;99.90
46416;DHT22;32620;51.704;7.822;2022-10-26T14:13:43;20.10;99.90
46416;DHT22;32620;51.704;7.822;2022-10-26T14:16:09;20.10;99.90
46416;DHT22;32620;51.704;7.822;2022-10-26T14:18:35;20.10;99.90
46416;DHT22;32620;51.704;7.822;2022-10-26T14:21:03;20.20;99.90
46416;DHT22;32620;51.704;7.822;2022-10-26T14:23:43;20.20;99.90
46416;DHT22;32620;51.704;7.822;2022-10-26T14:26:17;20.20;99.90
46416;DHT22;32620;51.704;7.822;2022-10-26T14:28:45;20.20;99.90
46416;DHT22;32620;51.704;7.822;2022-10-26T14:31:12;20.20;99.90
46416;DHT22;32620;51.704;7.822;2022-10-26T14:33:44;20.20;99.90
46416;DHT22;32620;51.704;7.822;2022-10-26T14:36:09;20.20;99.90
46416;DHT22;32620;51.704;7.822;2022-10-26T14:38:38;20.10;99.90
46416;DHT22;32620;51.704;7.822;2022-10-26T14:41:07;20.10;99.90
46416;DHT22;32620;51.704;7.822;2022-10-26T14:43:32;20.20;99.90
46416;DHT22;32620;51.704;7.822;2022-10-26T14:45:58;20.20;99.90
46416;DHT22;32620;51.704;7.822;2022-10-26T14:48:27;20.10;99.90
46416;DHT22;32620;51.704;7.822;2022-10-26T14:50:56;20.10;99.90
46416;DHT22;32620;51.704;7.822;2022-10-26T14:53:24;20.10;99.90
46416;DHT22;32620;51.704;7.822;2022-10-26T14:55:53;20.00;99.90
46416;DHT22;32620;51.704;7.822;2022-10-26T14:58:26;20.00;99.90
46416;DHT22;32620;51.704;7.822;2022-10-26T15:01:48;20.00;99.90
46416;DHT22;32620;51.704;7.822;2022-10-26T15:03:38;19.90;99.90
46416;DHT22;32620;51.704;7.822;2022-10-26T15:06:38;19.90;99.90
46416;DHT22;32620;51.704;7.822;2022-10-26T15:08:53;19.90;99.90
46416;DHT22;32620;51.704;7.822;2022-10-26T15:11:19;19.80;99.90
46416;DHT22;32620;51.704;7.822;2022-10-26T15:13:44;19.70;99.90
46416;DHT22;32620;51.704;7.822;2022-10-26T15:16:14;19.60;99.90
46416;DHT22;32620;51.704;7.822;2022-10-26T15:18:41;19.50;99.90
46416;DHT22;32620;51.704;7.822;2022-10-26T15:21:17;19.50;99.90
46416;DHT22;32620;51.704;7.822;2022-10-26T15:23:45;19.50;99.90
46416;DHT22;32620;51.704;7.822;2022-10-26T15:26:11;19.40;99.90
46416;DHT22;32620;51.704;7.822;2022-10-26T15:28:38;19.30;99.90
46416;DHT22;32620;51.704;7.822;2022-10-26T15:31:21;19.30;99.90
46416;DHT22;32620;51.704;7.822;2022-10-26T15:36:19;19.10;99.90
46416;DHT22;32620;51.704;7.822;2022-10-26T15:38:45;19.10;99.90
46416;DHT22;32620;51.704;7.822;2022-10-26T15:41:18;19.00;99.90
46416;DHT22;32620;51.704;7.822;2022-10-26T15:43:46;18.90;99.90
46416;DHT22;32620;51.704;7.822;2022-10-26T15:46:12;18.90;99.90
46416;DHT22;32620;51.704;7.822;2022-10-26T15:48:37;18.80;99.90
46416;DHT22;32620;51.704;7.822;2022-10-26T15:51:05;18.70;99.90
46416;DHT22;32620;51.704;7.822;2022-10-26T15:53:30;18.70;99.90
46416;DHT22;32620;51.704;7.822;2022-10-26T15:55:57;18.60;99.90
46416;DHT22;32620;51.704;7.822;2022-10-26T15:58:24;18.50;99.90
46416;DHT22;32620;51.704;7.822;2022-10-26T16:00:49;18.40;99.90
46416;DHT22;32620;51.704;7.822;2022-10-26T16:03:16;18.30;99.90
46416;DHT22;32620;51.704;7.822;2022-10-26T16:05:43;18.20;99.90
46416;DHT22;32620;51.704;7.822;2022-10-26T16:08:11;18.00;99.90
46416;DHT22;32620;51.704;7.822;2022-10-26T16:10:37;17.80;99.90
46416;DHT22;32620;51.704;7.822;2022-10-26T16:13:02;17.60;99.90
46416;DHT22;32620;51.704;7.822;2022-10-26T16:15:28;17.50;99.90
46416;DHT22;32620;51.704;7.822;2022-10-26T16:17:54;17.30;99.90
46416;DHT22;32620;51.704;7.822;2022-10-26T16:20:21;17.20;99.90
46416;DHT22;32620;51.704;7.822;2022-10-26T16:22:47;17.10;99.90
46416;DHT22;32620;51.704;7.822;2022-10-26T16:25:15;17.00;99.90
46416;DHT22;32620;51.704;7.822;2022-10-26T16:27:41;16.80;99.90
46416;DHT22;32620;51.704;7.822;2022-10-26T16:30:06;16.70;99.90
46416;DHT22;32620;51.704;7.822;2022-10-26T16:32:32;16.60;99.90
46416;DHT22;32620;51.704;7.822;2022-10-26T16:34:58;16.50;99.90
46416;DHT22;32620;51.704;7.822;2022-10-26T16:37:23;16.40;99.90
46416;DHT22;32620;51.704;7.822;2022-10-26T16:39:49;16.30;99.90
46416;DHT22;32620;51.704;7.822;2022-10-26T16:42:14;16.20;99.90
46416;DHT22;32620;51.704;7.822;2022-10-26T16:44:40;16.10;99.90
46416;DHT22;32620;51.704;7.822;2022-10-26T16:47:05;16.00;99.90
46416;DHT22;32620;51.704;7.822;2022-10-26T16:49:31;15.90;99.90
46416;DHT22;32620;51.704;7.822;2022-10-26T16:51:56;15.70;99.90
46416;DHT22;32620;51.704;7.822;2022-10-26T16:54:22;15.70;99.90